Time,TemperatureF,DewpointF,PressureIn,WindDirection,WindDirectionDegrees,WindSpeedMPH,WindSpeedGustMPH,Humidity,HourlyPrecipIn,Conditions,Clouds,dailyrainin,SoftwareType,DateUTC
2013-02-01 08:22:00,34.0,15.0,30.22,SSW,199,0.0,10.0,45,0.00,,,0.00,,2013-02-01 13:22:00,
2013-02-01 08:33:00,33.0,13.0,30.23,East,94,1.0,14.0,44,0.00,,,0.00,,2013-02-01 13:33:00,
2013-02-01 08:43:00,33.0,13.0,30.23,East,94,1.0,14.0,44,0.00,,,0.00,,2013-02-01 13:43:00,
2013-02-01 08:53:00,34.0,13.0,30.25,NNE,25,0.0,5.0,42,0.00,,,0.00,,2013-02-01 13:53:00,
2013-02-01 09:03:00,34.0,12.0,30.26,ENE,58,1.0,6.0,40,0.00,,,0.00,,2013-02-01 14:03:00,
2013-02-01 09:11:00,34.0,12.0,30.28,ESE,105,1.0,7.0,40,0.00,,,0.00,,2013-02-01 14:11:00,
2013-02-01 09:22:00,34.0,12.0,30.28,ESE,105,1.0,7.0,40,0.00,,,0.00,,2013-02-01 14:22:00,
2013-02-01 09:32:00,34.0,12.0,30.28,NE,52,1.0,9.0,40,0.00,,,0.00,,2013-02-01 14:32:00,
2013-02-01 09:42:00,34.0,12.0,30.28,NE,52,1.0,9.0,40,0.00,,,0.00,,2013-02-01 14:42:00,
2013-02-01 09:53:00,34.0,11.0,30.30,SW,214,2.0,7.0,38,0.00,,,0.00,,2013-02-01 14:53:00,
2013-02-01 10:02:00,34.0,11.0,30.30,ENE,60,1.0,7.0,37,0.00,,,0.00,,2013-02-01 15:02:00,
2013-02-01 10:12:00,34.0,11.0,30.32,East,84,1.0,7.0,37,0.00,,,0.00,,2013-02-01 15:12:00,
2013-02-01 10:22:00,34.0,11.0,30.32,East,84,1.0,7.0,37,0.00,,,0.00,,2013-02-01 15:22:00,
2013-02-01 10:33:00,34.0,10.0,30.33,SW,234,1.0,6.0,36,0.00,,,0.00,,2013-02-01 15:33:00,
2013-02-01 10:42:00,34.0,10.0,30.33,SW,234,1.0,6.0,36,0.00,,,0.00,,2013-02-01 15:42:00,
2013-02-01 10:52:00,34.0,9.0,30.34,ENE,60,2.0,7.0,35,0.00,,,0.00,,2013-02-01 15:52:00,
2013-02-01 11:03:00,34.0,9.0,30.34,ENE,63,4.0,14.0,34,0.00,,,0.00,,2013-02-01 16:03:00,
2013-02-01 11:11:00,34.0,9.0,30.35,ENE,58,1.0,12.0,34,0.00,,,0.00,,2013-02-01 16:11:00,
2013-02-01 11:22:00,34.0,9.0,30.35,ENE,58,1.0,12.0,34,0.00,,,0.00,,2013-02-01 16:22:00,
2013-02-01 11:33:00,34.0,9.0,30.35,North,355,1.0,15.0,35,0.00,,,0.00,,2013-02-01 16:33:00,
2013-02-01 11:43:00,35.0,9.0,30.36,North,360,3.0,11.0,34,0.00,,,0.00,,2013-02-01 16:43:00,
2013-02-01 11:52:00,35.0,9.0,30.36,North,360,3.0,11.0,34,0.00,,,0.00,,2013-02-01 16:52:00,
2013-02-01 12:02:00,35.0,8.0,30.35,ENE,66,2.0,13.0,32,0.00,,,0.00,,2013-02-01 17:02:00,
2013-02-01 12:12:00,36.0,8.0,30.36,ENE,76,2.0,18.0,31,0.00,,,0.00,,2013-02-01 17:12:00,
2013-02-01 12:22:00,36.0,8.0,30.36,ENE,76,2.0,18.0,31,0.00,,,0.00,,2013-02-01 17:22:00,
2013-02-01 12:32:00,36.0,9.0,30.36,ENE,64,5.0,16.0,32,0.00,,,0.00,,2013-02-01 17:32:00,
2013-02-01 12:42:00,36.0,9.0,30.36,ENE,64,5.0,16.0,32,0.00,,,0.00,,2013-02-01 17:42:00,
2013-02-01 12:53:00,36.0,8.0,30.36,West,261,1.0,6.0,30,0.00,,,0.00,,2013-02-01 17:53:00,
2013-02-01 13:03:00,36.0,7.0,30.36,NE,44,2.0,11.0,29,0.00,,,0.00,,2013-02-01 18:03:00,
2013-02-01 13:12:00,36.0,7.0,30.36,NE,44,2.0,11.0,29,0.00,,,0.00,,2013-02-01 18:12:00,
2013-02-01 13:22:00,37.0,8.0,30.36,WSW,257,1.0,10.0,29,0.00,,,0.00,,2013-02-01 18:22:00,
2013-02-01 13:32:00,36.0,8.0,30.35,NE,42,2.0,7.0,30,0.00,,,0.00,,2013-02-01 18:32:00,
2013-02-01 13:42:00,36.0,8.0,30.35,NE,42,2.0,7.0,30,0.00,,,0.00,,2013-02-01 18:42:00,
2013-02-01 13:53:00,37.0,8.0,30.35,ENE,60,1.0,14.0,30,0.00,,,0.00,,2013-02-01 18:53:00,
2013-02-01 14:03:00,38.0,9.0,30.35,East,80,1.0,5.0,30,0.00,,,0.00,,2013-02-01 19:03:00,
2013-02-01 14:12:00,38.0,9.0,30.35,East,80,1.0,5.0,30,0.00,,,0.00,,2013-02-01 19:12:00,
2013-02-01 14:22:00,38.0,9.0,30.36,SW,214,1.0,11.0,29,0.00,,,0.00,,2013-02-01 19:22:00,
2013-02-01 14:32:00,38.0,10.0,30.36,East,86,1.0,9.0,31,0.00,,,0.00,,2013-02-01 19:32:00,
2013-02-01 14:42:00,38.0,10.0,30.36,East,86,1.0,9.0,31,0.00,,,0.00,,2013-02-01 19:42:00,
2013-02-01 14:52:00,38.0,10.0,30.36,ENE,76,0.0,7.0,31,0.00,,,0.00,,2013-02-01 19:52:00,
2013-02-01 15:02:00,38.0,10.0,30.36,ENE,61,1.0,4.0,31,0.00,,,0.00,,2013-02-01 20:02:00,
2013-02-01 15:11:00,39.0,12.0,30.36,ENE,57,2.0,8.0,32,0.00,,,0.00,,2013-02-01 20:11:00,
2013-02-01 15:21:00,39.0,12.0,30.36,ENE,57,2.0,8.0,32,0.00,,,0.00,,2013-02-01 20:21:00,
2013-02-01 15:32:00,39.0,11.0,30.36,WSW,248,0.0,5.0,31,0.00,,,0.00,,2013-02-01 20:32:00,
2013-02-01 15:42:00,39.0,11.0,30.36,WSW,248,0.0,5.0,31,0.00,,,0.00,,2013-02-01 20:42:00,
2013-02-01 15:52:00,39.0,12.0,30.36,NE,45,3.0,7.0,32,0.00,,,0.00,,2013-02-01 20:52:00,
2013-02-01 16:02:00,40.0,12.0,30.36,NE,38,0.0,4.0,31,0.00,,,0.00,,2013-02-01 21:02:00,
2013-02-01 16:12:00,40.0,12.0,30.36,NE,38,0.0,4.0,31,0.00,,,0.00,,2013-02-01 21:12:00,
2013-02-01 16:22:00,40.0,12.0,30.36,WSW,254,1.0,5.0,31,0.00,,,0.00,,2013-02-01 21:22:00,
2013-02-01 16:32:00,40.0,11.0,30.36,ENE,61,2.0,7.0,30,0.00,,,0.00,,2013-02-01 21:32:00,
2013-02-01 16:42:00,40.0,11.0,30.36,ENE,61,2.0,7.0,30,0.00,,,0.00,,2013-02-01 21:42:00,
2013-02-01 16:52:00,39.0,10.0,30.37,WNW,302,0.0,3.0,30,0.00,,,0.00,,2013-02-01 21:52:00,
2013-02-01 17:02:00,38.0,10.0,30.37,ENE,62,0.0,2.0,31,0.00,,,0.00,,2013-02-01 22:02:00,
2013-02-01 17:11:00,38.0,10.0,30.37,ENE,62,0.0,2.0,31,0.00,,,0.00,,2013-02-01 22:11:00,
2013-02-01 17:21:00,37.0,11.0,30.37,ENE,72,1.0,5.0,33,0.00,,,0.00,,2013-02-01 22:21:00,
2013-02-01 17:32:00,36.0,10.0,30.38,ENE,72,0.0,1.0,33,0.00,,,0.00,,2013-02-01 22:32:00,
2013-02-01 17:42:00,36.0,10.0,30.38,ENE,72,0.0,1.0,33,0.00,,,0.00,,2013-02-01 22:42:00,
2013-02-01 17:52:00,36.0,10.0,30.38,ENE,63,0.0,2.0,34,0.00,,,0.00,,2013-02-01 22:52:00,
2013-02-01 18:02:00,36.0,11.0,30.38,ENE,63,0.0,0.0,35,0.00,,,0.00,,2013-02-01 23:02:00,
2013-02-01 18:11:00,36.0,11.0,30.38,ENE,63,0.0,0.0,35,0.00,,,0.00,,2013-02-01 23:11:00,
2013-02-01 18:22:00,34.0,13.0,30.39,ENE,63,0.0,0.0,41,0.00,,,0.00,,2013-02-01 23:22:00,
2013-02-01 18:32:00,33.0,11.0,30.39,ENE,63,0.0,0.0,40,0.00,,,0.00,,2013-02-01 23:32:00,
2013-02-01 18:42:00,33.0,11.0,30.39,ENE,63,0.0,0.0,40,0.00,,,0.00,,2013-02-01 23:42:00,
2013-02-01 18:52:00,32.0,13.0,30.39,ENE,65,0.0,0.0,44,0.00,,,0.00,,2013-02-01 23:52:00,
2013-02-01 19:02:00,31.0,12.0,30.39,ENE,65,0.0,0.0,44,0.00,,,0.00,,2013-02-02 00:02:00,
2013-02-01 19:21:00,30.0,10.0,30.41,South,182,0.0,0.0,43,0.00,,,0.00,,2013-02-02 00:21:00,
2013-02-01 19:32:00,30.0,13.0,30.40,South,182,0.0,0.0,48,0.00,,,0.00,,2013-02-02 00:32:00,
2013-02-01 19:42:00,30.0,13.0,30.40,South,182,0.0,0.0,48,0.00,,,0.00,,2013-02-02 00:42:00,
2013-02-01 19:52:00,29.0,12.0,30.41,South,182,0.0,0.0,49,0.00,,,0.00,,2013-02-02 00:52:00,
2013-02-01 20:02:00,28.0,11.0,30.42,South,182,0.0,1.0,49,0.00,,,0.00,,2013-02-02 01:02:00,
2013-02-01 20:11:00,28.0,11.0,30.42,South,182,0.0,1.0,49,0.00,,,0.00,,2013-02-02 01:11:00,
2013-02-01 20:21:00,29.0,14.0,30.43,South,182,0.0,0.0,54,0.00,,,0.00,,2013-02-02 01:21:00,
2013-02-01 20:32:00,28.0,13.0,30.42,South,182,0.0,0.0,52,0.00,,,0.00,,2013-02-02 01:32:00,
2013-02-01 20:42:00,28.0,13.0,30.42,South,182,0.0,0.0,52,0.00,,,0.00,,2013-02-02 01:42:00,
2013-02-01 20:52:00,28.0,12.0,30.43,South,186,0.0,1.0,50,0.00,,,0.00,,2013-02-02 01:52:00,
2013-02-01 21:01:00,28.0,12.0,30.44,South,186,0.0,0.0,50,0.00,,,0.00,,2013-02-02 02:01:00,
2013-02-01 21:11:00,28.0,12.0,30.44,South,186,0.0,0.0,50,0.00,,,0.00,,2013-02-02 02:11:00,
2013-02-01 21:22:00,27.0,11.0,30.43,South,186,0.0,0.0,51,0.00,,,0.00,,2013-02-02 02:22:00,
2013-02-01 21:32:00,27.0,13.0,30.44,South,186,0.0,0.0,54,0.00,,,0.00,,2013-02-02 02:32:00,
2013-02-01 21:42:00,27.0,13.0,30.44,South,186,0.0,0.0,54,0.00,,,0.00,,2013-02-02 02:42:00,
2013-02-01 21:52:00,27.0,13.0,30.44,South,186,0.0,0.0,54,0.00,,,0.00,,2013-02-02 02:52:00,
2013-02-01 22:02:00,26.0,12.0,30.44,South,186,0.0,0.0,54,0.00,,,0.00,,2013-02-02 03:02:00,
2013-02-01 22:11:00,26.0,13.0,30.44,South,186,0.0,0.0,57,0.00,,,0.00,,2013-02-02 03:11:00,
2013-02-01 22:22:00,26.0,13.0,30.44,South,186,0.0,0.0,57,0.00,,,0.00,,2013-02-02 03:22:00,
2013-02-01 22:32:00,25.0,12.0,30.45,South,186,0.0,1.0,56,0.00,,,0.00,,2013-02-02 03:32:00,
2013-02-01 22:42:00,24.0,12.0,30.45,South,186,0.0,0.0,60,0.00,,,0.00,,2013-02-02 03:42:00,
2013-02-01 22:52:00,24.0,12.0,30.45,South,186,0.0,0.0,60,0.00,,,0.00,,2013-02-02 03:52:00,
2013-02-01 23:02:00,24.0,11.0,30.44,South,186,0.0,0.0,57,0.00,,,0.00,,2013-02-02 04:02:00,
2013-02-01 23:11:00,24.0,11.0,30.44,South,186,0.0,0.0,57,0.00,,,0.00,,2013-02-02 04:11:00,
2013-02-01 23:22:00,23.0,12.0,30.45,South,186,0.0,0.0,62,0.00,,,0.00,,2013-02-02 04:22:00,
2013-02-01 23:32:00,24.0,14.0,30.45,South,186,0.0,0.0,64,0.00,,,0.00,,2013-02-02 04:32:00,
2013-02-01 23:42:00,24.0,14.0,30.45,South,186,0.0,0.0,64,0.00,,,0.00,,2013-02-02 04:42:00,
2013-02-01 23:52:00,23.0,13.0,30.45,South,186,0.0,0.0,65,0.00,,,0.00,,2013-02-02 04:52:00,